createdAt,value
2023-04-20T00:00:24.354Z,3.92
2023-04-20T00:02:56.635Z,3.53
2023-04-20T00:05:30.655Z,4.00
2023-04-20T00:08:04.048Z,3.70
2023-04-20T00:10:36.306Z,3.47
2023-04-20T00:13:08.342Z,3.85
2023-04-20T00:15:40.639Z,3.65
2023-04-20T00:18:12.855Z,3.67
2023-04-20T00:20:45.175Z,4.28
2023-04-20T00:23:17.370Z,3.88
2023-04-20T00:25:49.881Z,4.68
2023-04-20T00:28:22.221Z,3.35
2023-04-20T00:30:54.397Z,3.50
2023-04-20T00:33:26.599Z,3.47
2023-04-20T00:35:58.976Z,3.05
2023-04-20T00:38:31.453Z,3.90
2023-04-20T00:41:03.995Z,4.05
2023-04-20T00:43:36.276Z,3.33
2023-04-20T00:46:11.809Z,4.30
2023-04-20T00:48:44.515Z,4.20
2023-04-20T00:51:16.761Z,3.78
2023-04-20T00:53:50.672Z,3.67
2023-04-20T00:56:22.927Z,3.70
2023-04-20T00:58:55.565Z,4.00
2023-04-20T01:01:27.849Z,4.00
2023-04-20T01:04:00.178Z,4.15
2023-04-20T01:06:33.710Z,4.55
2023-04-20T01:09:06.023Z,3.58
2023-04-20T01:11:41.418Z,3.33
2023-04-20T01:14:13.774Z,4.25
2023-04-20T01:16:47.413Z,3.85
2023-04-20T01:19:22.521Z,3.85
2023-04-20T01:21:54.874Z,4.22
2023-04-20T01:24:27.890Z,4.07
2023-04-20T01:27:01.790Z,3.88
2023-04-20T01:29:37.139Z,4.03
2023-04-20T01:32:09.682Z,3.40
2023-04-20T01:34:42.235Z,3.58
2023-04-20T01:37:15.589Z,3.33
2023-04-20T01:39:48.151Z,3.88
2023-04-20T01:42:20.708Z,3.65
2023-04-20T01:44:54.291Z,3.45
2023-04-20T01:47:26.812Z,3.53
2023-04-20T01:49:59.372Z,3.60
2023-04-20T01:52:31.737Z,3.33
2023-04-20T01:55:04.218Z,3.15
2023-04-20T01:57:36.687Z,3.45
2023-04-20T02:00:12.614Z,3.17
2023-04-20T02:02:45.049Z,3.08
2023-04-20T02:05:17.555Z,3.40
2023-04-20T02:07:49.617Z,3.30
2023-04-20T02:10:21.957Z,3.10
2023-04-20T02:12:54.684Z,3.05
2023-04-20T02:15:27.042Z,3.33
2023-04-20T02:17:59.749Z,3.38
2023-04-20T02:20:32.080Z,3.25
2023-04-20T02:23:04.392Z,3.15
2023-04-20T02:25:36.898Z,3.40
2023-04-20T02:28:11.923Z,3.08
2023-04-20T02:30:44.358Z,3.75
2023-04-20T02:33:19.922Z,3.20
2023-04-20T02:35:52.218Z,4.18
2023-04-20T02:38:24.495Z,3.60
2023-04-20T02:40:56.679Z,3.55
2023-04-20T02:43:28.999Z,3.78
2023-04-20T02:46:01.406Z,3.58
2023-04-20T02:48:33.567Z,4.05
2023-04-20T02:51:05.808Z,3.75
2023-04-20T02:53:37.957Z,3.50
2023-04-20T02:56:10.319Z,3.83
2023-04-20T02:58:42.744Z,3.28
2023-04-20T03:01:15.238Z,3.90
2023-04-20T03:03:47.649Z,3.97
2023-04-20T03:06:19.966Z,3.58
2023-04-20T03:08:52.464Z,3.88
2023-04-20T03:11:24.743Z,3.25
2023-04-20T03:13:57.076Z,3.78
2023-04-20T03:16:29.258Z,4.05
2023-04-20T03:19:01.487Z,3.92
2023-04-20T03:21:35.126Z,3.33
2023-04-20T03:24:10.386Z,3.83
2023-04-20T03:26:43.141Z,3.92
2023-04-20T03:29:15.960Z,3.58
2023-04-20T03:31:49.679Z,3.85
2023-04-20T03:34:25.090Z,4.07
2023-04-20T03:36:57.453Z,4.10
2023-04-20T03:39:29.741Z,3.75
2023-04-20T03:42:06.851Z,4.07
2023-04-20T03:44:39.152Z,4.32
2023-04-20T03:47:11.568Z,3.47
2023-04-20T03:49:46.664Z,3.67
2023-04-20T03:52:18.989Z,3.50
2023-04-20T03:54:51.745Z,3.85
2023-04-20T03:57:31.136Z,4.20
2023-04-20T04:00:04.840Z,3.78
2023-04-20T04:02:38.286Z,4.18
2023-04-20T04:05:13.036Z,4.10
2023-04-20T04:07:46.747Z,4.65
2023-04-20T04:10:19.829Z,4.25
2023-04-20T04:12:52.061Z,4.60
2023-04-20T04:15:24.503Z,4.13
2023-04-20T04:17:56.789Z,5.10
2023-04-20T04:20:28.971Z,5.05
2023-04-20T04:23:01.103Z,5.10
2023-04-20T04:25:33.875Z,4.38
2023-04-20T04:28:06.681Z,4.68
2023-04-20T04:30:48.560Z,4.32
2023-04-20T04:33:22.070Z,4.75
2023-04-20T04:35:55.557Z,5.38
2023-04-20T04:38:37.297Z,5.22
2023-04-20T04:41:09.648Z,5.55
2023-04-20T04:43:42.468Z,4.53
2023-04-20T04:46:18.264Z,4.85
2023-04-20T04:48:50.803Z,5.47
2023-04-20T04:51:22.922Z,4.82
2023-04-20T04:53:57.814Z,4.38
2023-04-20T04:56:29.912Z,5.95
2023-04-20T04:59:02.099Z,4.70
2023-04-20T05:01:40.388Z,5.32
2023-04-20T05:04:12.586Z,5.15
2023-04-20T05:06:45.042Z,4.53
2023-04-20T05:09:17.471Z,5.32
2023-04-20T05:11:49.766Z,5.38
2023-04-20T05:14:21.854Z,4.28
2023-04-20T05:16:53.998Z,4.80
2023-04-20T05:19:26.333Z,4.47
2023-04-20T05:21:58.455Z,5.10
2023-04-20T05:24:30.761Z,4.38
2023-04-20T05:27:04.497Z,4.80
2023-04-20T05:29:36.605Z,4.80
2023-04-20T05:32:08.891Z,5.03
2023-04-20T05:34:41.129Z,4.28
2023-04-20T05:37:13.553Z,4.95
2023-04-20T05:39:45.647Z,4.28
2023-04-20T05:42:17.692Z,4.60
2023-04-20T05:44:49.729Z,4.65
2023-04-20T05:47:21.856Z,5.55
2023-04-20T05:49:56.806Z,5.20
2023-04-20T05:52:28.856Z,6.80
2023-04-20T05:55:00.989Z,5.35
2023-04-20T05:57:33.035Z,4.75
2023-04-20T06:00:06.213Z,4.82
2023-04-20T06:02:38.501Z,5.68
2023-04-20T06:05:11.586Z,5.35
2023-04-20T06:07:43.832Z,4.85
2023-04-20T06:10:16.120Z,5.43
2023-04-20T06:12:48.378Z,5.00
2023-04-20T06:15:20.689Z,4.93
2023-04-20T06:17:52.939Z,4.80
2023-04-20T06:20:25.225Z,5.20
2023-04-20T06:22:57.367Z,5.70
2023-04-20T06:25:29.614Z,6.00
2023-04-20T06:28:01.772Z,5.53
2023-04-20T06:30:34.675Z,5.07
2023-04-20T06:33:08.044Z,4.50
2023-04-20T06:35:41.792Z,5.97
2023-04-20T06:38:24.270Z,5.47
2023-04-20T06:40:59.005Z,4.47
2023-04-20T06:43:31.836Z,6.03
2023-04-20T06:46:04.572Z,5.78
2023-04-20T06:48:38.978Z,5.85
2023-04-20T06:51:14.184Z,6.53
2023-04-20T06:53:46.650Z,5.90
2023-04-20T06:56:18.910Z,5.90
2023-04-20T06:58:51.251Z,5.80
2023-04-20T07:01:23.473Z,5.55
2023-04-20T07:04:48.819Z,5.78
2023-04-20T07:07:21.442Z,5.97
2023-04-20T07:09:54.892Z,6.32
2023-04-20T07:12:27.098Z,6.10
2023-04-20T07:14:59.453Z,5.78
2023-04-20T07:17:32.748Z,6.10
2023-04-20T07:20:09.547Z,7.03
2023-04-20T07:22:41.907Z,7.03
2023-04-20T07:25:14.578Z,6.50
2023-04-20T07:27:46.980Z,6.30
2023-04-20T07:30:19.203Z,5.75
2023-04-20T07:32:51.396Z,6.13
2023-04-20T07:35:23.976Z,7.50
2023-04-20T07:37:56.336Z,7.65
2023-04-20T07:40:28.992Z,7.50
2023-04-20T07:43:03.862Z,6.13
2023-04-20T07:45:36.102Z,6.20
2023-04-20T07:48:09.857Z,6.10
2023-04-20T07:50:42.391Z,6.85
2023-04-20T07:53:14.562Z,5.95
2023-04-20T07:55:47.413Z,7.20
2023-04-20T07:58:21.835Z,6.43
2023-04-20T08:00:53.906Z,5.40
2023-04-20T08:06:16.342Z,5.38
2023-04-20T08:08:48.654Z,8.43
2023-04-20T08:11:21.853Z,6.43
2023-04-20T08:13:55.022Z,6.85
2023-04-20T08:16:28.334Z,6.57
2023-04-20T08:19:01.948Z,6.28
2023-04-20T08:21:35.657Z,7.00
2023-04-20T08:24:08.986Z,6.70
2023-04-20T08:26:41.108Z,6.55
2023-04-20T08:29:13.336Z,8.20
2023-04-20T08:31:45.642Z,7.05
2023-04-20T08:34:19.139Z,6.68
2023-04-20T08:36:51.585Z,7.18
2023-04-20T08:39:24.489Z,7.00
2023-04-20T08:41:57.552Z,6.93
2023-04-20T08:44:29.775Z,8.30
2023-04-20T08:47:03.275Z,7.45
2023-04-20T08:49:36.352Z,7.38
2023-04-20T08:52:13.920Z,7.90
2023-04-20T08:54:56.122Z,7.20
2023-04-20T08:57:29.206Z,12.45
2023-04-20T09:00:05.799Z,7.57
2023-04-20T09:02:53.536Z,6.80
2023-04-20T09:05:32.333Z,6.82
2023-04-20T09:08:05.446Z,6.47
2023-04-20T09:10:43.814Z,7.63
2023-04-20T09:13:23.639Z,7.03
2023-04-20T09:15:55.865Z,7.40
2023-04-20T09:18:27.958Z,7.60
2023-04-20T09:21:09.761Z,8.02
2023-04-20T09:23:42.005Z,7.53
2023-04-20T09:26:19.133Z,6.50
2023-04-20T09:28:51.309Z,7.07
2023-04-20T09:31:24.681Z,6.18
2023-04-20T09:34:03.176Z,6.97
2023-04-20T09:36:37.691Z,7.22
2023-04-20T09:39:21.600Z,7.45
2023-04-20T09:41:53.635Z,7.03
2023-04-20T09:44:25.912Z,7.30
2023-04-20T09:46:58.656Z,7.70
2023-04-20T09:49:30.895Z,7.13
2023-04-20T09:52:04.734Z,6.78
2023-04-20T09:54:38.759Z,6.78
2023-04-20T09:57:13.112Z,6.88
2023-04-20T09:59:47.719Z,7.57
2023-04-20T10:02:19.949Z,6.55
2023-04-20T10:04:57.569Z,7.22
2023-04-20T10:07:32.118Z,6.80
2023-04-20T10:10:12.880Z,5.45
2023-04-20T10:12:53.100Z,5.97
2023-04-20T10:15:40.682Z,5.28
2023-04-20T10:18:21.252Z,5.43
2023-04-20T10:21:07.178Z,5.72
2023-04-20T10:23:50.616Z,5.15
2023-04-20T10:26:23.644Z,5.13
2023-04-20T10:28:55.827Z,5.47
2023-04-20T10:31:38.133Z,5.72
2023-04-20T10:34:10.361Z,5.43
2023-04-20T10:36:42.966Z,5.78
2023-04-20T10:39:21.039Z,5.63
2023-04-20T10:42:03.674Z,6.03
2023-04-20T10:44:36.030Z,6.10
2023-04-20T10:47:08.149Z,5.75
2023-04-20T10:49:40.378Z,6.65
2023-04-20T10:52:13.345Z,6.20
2023-04-20T10:54:46.687Z,5.97
2023-04-20T10:57:18.805Z,6.93
2023-04-20T10:59:50.999Z,6.85
2023-04-20T11:02:23.750Z,5.60
2023-04-20T11:05:01.158Z,5.68
2023-04-20T11:07:33.610Z,6.80
2023-04-20T11:10:08.202Z,5.57
2023-04-20T11:12:40.466Z,4.90
2023-04-20T11:15:13.638Z,6.53
2023-04-20T11:21:42.960Z,6.82
2023-04-20T11:24:27.032Z,6.15
2023-04-20T11:26:59.692Z,5.68
2023-04-20T11:29:33.752Z,5.78
2023-04-20T11:32:11.323Z,6.00
2023-04-20T11:34:46.104Z,5.95
2023-04-20T11:37:20.130Z,6.65
2023-04-20T11:40:09.801Z,6.05
2023-04-20T11:42:41.988Z,6.38
2023-04-20T11:45:18.189Z,6.07
2023-04-20T11:47:51.293Z,5.00
2023-04-20T11:50:23.917Z,5.05
2023-04-20T11:52:56.043Z,6.28
2023-04-20T11:55:28.218Z,4.78
2023-04-20T11:58:00.436Z,4.35
2023-04-20T12:00:32.650Z,4.38
2023-04-20T12:03:12.553Z,5.22
2023-04-20T12:08:17.506Z,4.85
2023-04-20T12:14:42.003Z,5.03
2023-04-20T12:17:14.117Z,4.75
2023-04-20T12:19:46.226Z,7.53
2023-04-20T12:22:23.638Z,5.85
2023-04-20T12:24:55.908Z,4.63
2023-04-20T12:27:28.336Z,4.40
2023-04-20T12:30:00.686Z,5.93
2023-04-20T12:32:36.427Z,4.57
2023-04-20T12:35:09.772Z,4.03
2023-04-20T12:37:41.873Z,4.68
2023-04-20T12:40:14.173Z,4.90
2023-04-20T12:42:46.495Z,4.50
2023-04-20T12:45:18.870Z,5.40
2023-04-20T12:48:11.440Z,4.68
2023-04-20T12:50:43.965Z,5.07
2023-04-20T12:53:16.067Z,5.10
2023-04-20T12:55:49.540Z,5.53
2023-04-20T12:58:28.115Z,5.30
2023-04-20T13:01:00.527Z,5.22
2023-04-20T13:03:33.090Z,6.60
2023-04-20T13:06:06.336Z,5.00
2023-04-20T13:08:38.447Z,5.82
2023-04-20T13:11:15.670Z,6.18
2023-04-20T13:13:47.750Z,5.95
2023-04-20T13:16:19.872Z,6.07
2023-04-20T13:18:52.153Z,5.93
2023-04-20T13:25:26.848Z,5.32
2023-04-20T13:27:59.706Z,5.28
2023-04-20T13:30:32.570Z,6.57
2023-04-20T13:33:04.720Z,5.80
2023-04-20T13:35:37.396Z,6.13
2023-04-20T13:38:09.490Z,5.85
2023-04-20T13:40:44.357Z,5.50
2023-04-20T13:43:16.732Z,6.78
2023-04-20T13:45:50.462Z,6.20
2023-04-20T13:48:22.717Z,6.20
2023-04-20T13:50:54.948Z,5.95
2023-04-20T13:53:27.654Z,6.43
2023-04-20T13:55:59.954Z,6.95
2023-04-20T13:58:32.250Z,7.13
2023-04-20T14:01:17.750Z,6.35
2023-04-20T14:03:52.001Z,7.40
2023-04-20T14:06:24.328Z,7.00
2023-04-20T14:08:56.551Z,7.55
2023-04-20T14:11:28.743Z,7.72
2023-04-20T14:14:01.118Z,9.60
2023-04-20T14:16:33.524Z,7.85
2023-04-20T14:19:05.680Z,6.10
2023-04-20T14:21:38.013Z,6.45
2023-04-20T14:24:11.716Z,5.45
2023-04-20T14:26:44.037Z,6.43
2023-04-20T14:29:16.851Z,7.25
2023-04-20T14:32:11.161Z,5.95
2023-04-20T14:34:43.259Z,6.32
2023-04-20T14:37:15.598Z,6.32
2023-04-20T14:39:47.799Z,5.88
2023-04-20T14:42:19.966Z,6.63
2023-04-20T14:45:41.700Z,6.40
2023-04-20T14:48:13.935Z,6.13
2023-04-20T14:50:46.051Z,7.65
2023-04-20T14:53:18.105Z,8.00
2023-04-20T14:55:51.491Z,6.40
2023-04-20T14:58:23.925Z,6.43
2023-04-20T15:00:56.081Z,6.10
2023-04-20T15:03:28.404Z,6.13
2023-04-20T15:06:02.607Z,7.07
2023-04-20T15:08:34.914Z,7.70
2023-04-20T15:11:09.183Z,6.63
2023-04-20T15:13:42.554Z,7.25
2023-04-20T15:16:15.152Z,7.15
2023-04-20T15:18:47.367Z,7.80
2023-04-20T15:21:23.648Z,7.63
2023-04-20T15:23:55.779Z,7.75
2023-04-20T15:26:28.059Z,7.82
2023-04-20T15:29:00.317Z,7.50
2023-04-20T15:31:32.565Z,8.13
2023-04-20T15:34:04.756Z,7.53
2023-04-20T15:36:36.907Z,7.47
2023-04-20T15:39:53.735Z,7.72
2023-04-20T15:42:26.484Z,7.82
2023-04-20T15:44:58.632Z,7.32
2023-04-20T15:48:09.363Z,7.88
2023-04-20T15:50:41.632Z,7.43
2023-04-20T15:53:13.882Z,8.05
2023-04-20T15:55:46.979Z,8.18
2023-04-20T15:58:19.230Z,8.07
2023-04-20T16:00:51.410Z,8.40
2023-04-20T16:03:23.952Z,8.55
2023-04-20T16:05:56.148Z,8.38
2023-04-20T16:08:28.281Z,10.95
2023-04-20T16:11:00.655Z,7.93
2023-04-20T16:13:33.078Z,8.35
2023-04-20T16:16:05.484Z,8.48
2023-04-20T16:18:37.782Z,7.72
2023-04-20T16:21:10.005Z,7.80
2023-04-20T16:23:42.148Z,8.27
2023-04-20T16:26:14.369Z,7.47
2023-04-20T16:28:46.665Z,8.20
2023-04-20T16:31:20.584Z,8.63
2023-04-20T16:33:53.056Z,8.35
2023-04-20T16:36:25.858Z,7.57
2023-04-20T16:38:58.081Z,7.93
2023-04-20T16:41:30.225Z,8.00
2023-04-20T16:44:02.328Z,8.07
2023-04-20T16:46:34.558Z,8.35
2023-04-20T16:49:06.800Z,8.45
2023-04-20T16:51:39.076Z,7.95
2023-04-20T16:54:11.845Z,9.38
2023-04-20T16:57:09.624Z,8.07
2023-04-20T16:59:42.187Z,8.27
2023-04-20T17:02:16.108Z,8.90
2023-04-20T17:04:48.216Z,9.32
2023-04-20T17:07:20.471Z,8.45
2023-04-20T17:11:09.189Z,10.25
2023-04-20T17:13:41.351Z,8.73
2023-04-20T17:16:13.531Z,8.45
2023-04-20T17:18:45.778Z,8.82
2023-04-20T17:21:18.185Z,10.52
2023-04-20T17:23:50.345Z,8.65
2023-04-20T17:26:22.371Z,8.60
2023-04-20T17:28:54.719Z,8.73
2023-04-20T17:31:26.874Z,8.35
2023-04-20T17:33:59.877Z,7.70
2023-04-20T17:36:32.150Z,8.70
2023-04-20T17:39:04.400Z,8.35
2023-04-20T17:41:36.544Z,9.15
2023-04-20T17:44:11.592Z,9.85
2023-04-20T17:46:44.318Z,9.35
2023-04-20T17:49:16.471Z,8.95
2023-04-20T17:51:48.520Z,10.18
2023-04-20T17:54:20.831Z,9.02
2023-04-20T17:56:53.063Z,9.10
2023-04-20T17:59:25.177Z,9.48
2023-04-20T18:01:57.327Z,10.18
2023-04-20T18:04:29.738Z,10.75
2023-04-20T18:07:02.021Z,9.32
2023-04-20T18:09:34.167Z,10.07
2023-04-20T18:12:13.342Z,10.07
2023-04-20T18:14:46.339Z,10.18
2023-04-20T18:17:18.559Z,10.18
2023-04-20T18:19:50.761Z,11.10
2023-04-20T18:22:24.393Z,10.45
2023-04-20T18:24:56.521Z,10.57
2023-04-20T18:27:28.622Z,9.73
2023-04-20T18:30:01.787Z,10.35
2023-04-20T18:32:36.326Z,11.13
2023-04-20T18:35:09.718Z,12.18
2023-04-20T18:37:41.889Z,11.95
2023-04-20T18:40:16.093Z,11.48
2023-04-20T18:42:50.383Z,12.82
2023-04-20T18:45:24.086Z,11.27
2023-04-20T18:47:58.321Z,12.65
2023-04-20T18:50:30.438Z,11.63
2023-04-20T18:53:02.557Z,11.52
2023-04-20T18:55:34.847Z,11.88
2023-04-20T18:58:07.143Z,12.07
2023-04-20T19:00:42.202Z,37.05
2023-04-20T19:03:14.490Z,28.83
2023-04-20T19:05:46.917Z,18.48
2023-04-20T19:08:18.985Z,15.88
2023-04-20T19:10:51.442Z,13.15
2023-04-20T19:13:24.024Z,13.27
2023-04-20T19:15:59.510Z,13.52
2023-04-20T19:18:31.713Z,12.68
2023-04-20T19:21:04.108Z,13.57
2023-04-20T19:23:36.410Z,13.10
2023-04-20T19:26:08.894Z,14.55
2023-04-20T19:28:41.008Z,13.38
2023-04-20T19:31:13.838Z,15.50
2023-04-20T19:33:46.113Z,15.75
2023-04-20T19:36:19.461Z,14.77
2023-04-20T19:38:51.596Z,17.73
2023-04-20T19:41:23.709Z,16.52
2023-04-20T19:43:57.084Z,15.98
2023-04-20T19:49:39.362Z,16.02
2023-04-20T19:52:14.544Z,16.27
2023-04-20T19:54:47.764Z,17.02
2023-04-20T19:57:19.935Z,18.02
2023-04-20T19:59:52.242Z,16.85
2023-04-20T20:02:24.645Z,16.95
2023-04-20T20:04:57.059Z,17.67
2023-04-20T20:07:29.194Z,19.25
2023-04-20T20:10:01.701Z,17.75
2023-04-20T20:12:33.987Z,19.60
2023-04-20T20:17:58.790Z,19.70
2023-04-20T20:20:34.547Z,19.50
2023-04-20T20:23:10.619Z,20.13
2023-04-20T20:25:42.870Z,20.17
2023-04-20T20:28:15.555Z,21.00
2023-04-20T20:33:38.662Z,19.38
2023-04-20T20:36:10.856Z,20.45
2023-04-20T20:38:43.767Z,19.02
2023-04-20T20:41:16.767Z,17.92
2023-04-20T20:43:51.039Z,20.05
2023-04-20T20:46:23.298Z,21.15
2023-04-20T20:48:56.476Z,20.08
2023-04-20T20:51:29.158Z,19.55
2023-04-20T20:54:19.465Z,19.33
2023-04-20T20:59:40.185Z,20.45
2023-04-20T21:05:37.261Z,17.85
2023-04-20T21:08:13.124Z,17.85
2023-04-20T21:10:45.445Z,17.15
2023-04-20T21:13:19.432Z,17.55
2023-04-20T21:15:51.993Z,17.73
2023-04-20T21:18:24.315Z,16.80
2023-04-20T21:20:56.477Z,16.92
2023-04-20T21:23:28.598Z,16.58
2023-04-20T21:26:00.844Z,15.93
2023-04-20T21:28:34.072Z,15.55
2023-04-20T21:31:12.575Z,17.52
2023-04-20T21:33:44.629Z,16.30
2023-04-20T21:36:16.744Z,15.60
2023-04-20T21:38:49.069Z,14.90
2023-04-20T21:41:22.093Z,14.38
2023-04-20T21:43:54.236Z,15.93
2023-04-20T21:46:26.429Z,15.15
2023-04-20T21:48:58.659Z,15.30
2023-04-20T21:51:32.096Z,15.70
2023-04-20T21:54:04.283Z,15.43
2023-04-20T21:56:36.378Z,14.23
2023-04-20T21:59:08.548Z,14.68
2023-04-20T22:01:40.810Z,15.32
2023-04-20T22:04:14.081Z,15.07
2023-04-20T22:06:47.088Z,15.45
2023-04-20T22:09:20.059Z,14.27
2023-04-20T22:11:56.104Z,13.60
2023-04-20T22:14:28.464Z,13.60
2023-04-20T22:17:01.970Z,14.10
2023-04-20T22:19:34.131Z,14.05
2023-04-20T22:22:06.380Z,13.52
2023-04-20T22:24:38.533Z,12.98
2023-04-20T22:31:06.905Z,13.40
2023-04-20T22:33:39.149Z,12.40
2023-04-20T22:36:11.271Z,12.85
2023-04-20T22:38:43.545Z,12.27
2023-04-20T22:41:17.421Z,12.25
2023-04-20T22:43:49.821Z,13.13
2023-04-20T22:46:22.173Z,13.30
2023-04-20T22:48:54.512Z,11.77
2023-04-20T22:51:29.151Z,13.05
2023-04-20T22:54:02.724Z,13.80
2023-04-20T22:56:35.382Z,12.23
2023-04-20T22:59:07.677Z,12.60
2023-04-20T23:01:39.781Z,11.90
2023-04-20T23:04:12.027Z,12.25
2023-04-20T23:06:45.611Z,12.57
2023-04-20T23:09:21.072Z,13.18
2023-04-20T23:11:53.980Z,12.13
2023-04-20T23:14:28.218Z,12.30
2023-04-20T23:17:00.373Z,12.80
2023-04-20T23:19:33.596Z,11.93
2023-04-20T23:22:09.122Z,11.57
2023-04-20T23:24:41.227Z,12.70
2023-04-20T23:27:13.380Z,12.00
2023-04-20T23:29:45.608Z,12.43
2023-04-20T23:32:17.763Z,12.80
2023-04-20T23:34:49.812Z,13.55
2023-04-20T23:37:21.929Z,12.35
2023-04-20T23:39:53.985Z,12.15
2023-04-20T23:42:26.069Z,12.57
2023-04-20T23:45:00.353Z,10.93
2023-04-20T23:47:32.765Z,13.13
2023-04-20T23:50:10.433Z,11.85
2023-04-20T23:52:42.605Z,11.35
2023-04-20T23:55:14.932Z,11.93
2023-04-20T23:58:09.224Z,12.68
